createdAt,value
2019-03-06T00:09:08.317Z,8.34
2019-03-06T00:19:08.269Z,8.40
2019-03-06T00:29:08.265Z,8.46
2019-03-06T00:39:08.368Z,8.46
2019-03-06T00:49:09.297Z,8.44
2019-03-06T00:59:08.295Z,8.41
2019-03-06T01:09:08.298Z,8.51
2019-03-06T01:19:08.336Z,8.51
2019-03-06T01:29:08.381Z,8.53
2019-03-06T01:39:08.255Z,8.48
2019-03-06T01:49:08.288Z,8.51
2019-03-06T01:59:08.288Z,8.48
2019-03-06T02:09:08.335Z,8.51
2019-03-06T02:19:09.480Z,8.58
2019-03-06T02:29:08.316Z,8.74
2019-03-06T02:39:08.298Z,8.80
2019-03-06T02:49:08.290Z,8.87
2019-03-06T02:59:08.314Z,8.80
2019-03-06T03:09:08.200Z,8.78
2019-03-06T03:19:08.316Z,8.87
2019-03-06T03:29:08.314Z,8.76
2019-03-06T03:39:08.277Z,8.82
2019-03-06T03:49:08.335Z,8.82
2019-03-06T03:59:08.283Z,8.75
2019-03-06T04:09:08.256Z,8.83
2019-03-06T04:19:08.372Z,8.97
2019-03-06T04:29:08.276Z,8.96
2019-03-06T04:39:08.411Z,8.94
2019-03-06T04:49:08.362Z,8.86
2019-03-06T04:59:08.328Z,8.92
2019-03-06T05:09:09.250Z,8.86
2019-03-06T05:19:08.337Z,8.67
2019-03-06T05:29:08.359Z,8.86
2019-03-06T05:39:08.326Z,9.01
2019-03-06T05:49:08.532Z,9.06
2019-03-06T05:59:08.259Z,9.18
2019-03-06T06:09:09.082Z,9.50
2019-03-06T06:19:08.400Z,9.73
2019-03-06T06:29:08.286Z,9.85
2019-03-06T06:39:08.138Z,9.88
2019-03-06T06:49:08.359Z,9.97
2019-03-06T06:59:08.268Z,9.97
2019-03-06T07:09:08.324Z,10.01
2019-03-06T07:19:08.255Z,10.09
2019-03-06T07:29:08.167Z,10.11
2019-03-06T07:39:08.267Z,10.02
2019-03-06T07:49:08.335Z,9.98
2019-03-06T07:59:08.307Z,10.01
2019-03-06T08:09:08.441Z,10.02
2019-03-06T08:19:08.228Z,10.17
2019-03-06T08:29:08.247Z,10.25
2019-03-06T08:39:08.458Z,10.42
2019-03-06T08:49:08.383Z,10.67
2019-03-06T08:59:08.346Z,10.79
2019-03-06T09:09:08.265Z,10.88
2019-03-06T09:19:09.242Z,11.32
2019-03-06T09:29:08.587Z,11.78
2019-03-06T09:39:08.391Z,11.73
2019-03-06T09:49:11.510Z,11.57
2019-03-06T09:59:08.264Z,11.69
2019-03-06T10:09:08.804Z,11.94
2019-03-06T10:19:08.144Z,12.15
2019-03-06T10:39:16.426Z,12.58
2019-03-06T10:49:14.158Z,13.06
2019-03-06T10:59:14.194Z,12.76
2019-03-06T11:09:15.487Z,12.74
2019-03-06T11:19:14.190Z,12.86
2019-03-06T11:29:13.968Z,13.03
2019-03-06T11:39:15.233Z,13.23
2019-03-06T11:49:14.887Z,13.40
2019-03-06T11:59:13.984Z,13.34
2019-03-06T12:09:14.095Z,13.30
2019-03-06T12:19:16.061Z,13.25
2019-03-06T12:29:14.104Z,13.14
2019-03-06T12:39:17.330Z,13.15
2019-03-06T12:49:17.532Z,13.16
2019-03-06T12:59:19.742Z,12.79
2019-03-06T13:09:15.001Z,12.57
2019-03-06T13:19:16.558Z,12.46
2019-03-06T13:29:14.070Z,12.49
2019-03-06T13:39:14.069Z,12.38
2019-03-06T13:49:15.532Z,12.20
2019-03-06T13:59:14.059Z,12.27
2019-03-06T14:09:14.041Z,12.62
2019-03-06T14:19:14.147Z,12.77
2019-03-06T14:29:14.008Z,12.78
2019-03-06T14:39:14.283Z,12.82
2019-03-06T14:49:14.162Z,12.85
2019-03-06T14:59:14.715Z,12.96
2019-03-06T15:09:14.617Z,12.94
2019-03-06T15:19:13.888Z,12.85
2019-03-06T15:29:15.644Z,12.65
2019-03-06T15:39:13.982Z,12.39
2019-03-06T15:49:14.004Z,12.27
2019-03-06T15:59:15.922Z,12.30
2019-03-06T16:09:14.836Z,12.28
2019-03-06T16:19:14.089Z,12.18
2019-03-06T16:29:14.060Z,12.16
2019-03-06T16:39:15.380Z,11.98
2019-03-06T16:49:14.881Z,11.87
2019-03-06T16:59:14.511Z,11.83
2019-03-06T17:09:14.490Z,11.77
2019-03-06T17:19:15.131Z,11.72
2019-03-06T17:29:13.964Z,11.70
2019-03-06T17:39:13.971Z,11.63
2019-03-06T17:49:14.039Z,11.65
2019-03-06T17:59:13.972Z,11.74
2019-03-06T18:09:14.053Z,11.73
2019-03-06T18:19:14.157Z,11.68
2019-03-06T18:29:13.968Z,11.62
2019-03-06T18:39:14.021Z,11.56
2019-03-06T18:49:13.907Z,11.66
2019-03-06T18:59:13.942Z,11.79
2019-03-06T19:09:13.958Z,11.66
2019-03-06T19:19:14.077Z,11.66
2019-03-06T19:29:13.975Z,11.56
2019-03-06T19:39:14.042Z,11.28
2019-03-06T19:49:13.964Z,11.09
2019-03-06T19:59:14.005Z,11.15
2019-03-06T20:09:17.322Z,11.15
2019-03-06T20:19:13.953Z,11.11
2019-03-06T20:29:13.982Z,11.03
2019-03-06T20:39:13.924Z,11.20
2019-03-06T20:49:14.574Z,11.25
2019-03-06T20:59:13.917Z,11.40
2019-03-06T21:09:14.696Z,11.45
2019-03-06T21:19:13.986Z,11.46
2019-03-06T21:29:13.991Z,11.40
2019-03-06T21:39:13.976Z,11.29
2019-03-06T21:49:13.948Z,11.26
2019-03-06T21:59:13.955Z,11.36
2019-03-06T22:09:13.895Z,11.41
2019-03-06T22:19:13.933Z,11.35
2019-03-06T22:29:13.944Z,11.32
2019-03-06T22:39:14.019Z,11.36
2019-03-06T22:49:13.890Z,11.26
2019-03-06T22:59:13.973Z,11.10
2019-03-06T23:09:13.979Z,11.05
2019-03-06T23:19:14.453Z,10.93
2019-03-06T23:29:13.924Z,10.86
2019-03-06T23:39:13.976Z,10.92
2019-03-06T23:49:14.043Z,10.88
2019-03-06T23:59:13.963Z,11.04
